Saint Petersburg, Russia
Current Conditions -  °F | °C
As of 3:00 PM on Friday 24 Oct 2014 (Local Time) from ULLI Reporting Station
Clear Clear  
Wind Chill: 28°   Ceiling: Unl
Heat Index: 34°   Visibility: 6mi
Dew Point: 23°   Wind: 7mph
Humidity: 65%   Direction: 180°S
Pressure: 30.68"   Gusts: NA
Location:  59.93°N, 30.32°E
Report Text: ULLI 241200Z 18003MPS 120V240 CAVOK 01/M05 Q1039 6019004510190060 NOSIG
Loading
Personal Weather Stations






























Interactive Weather Map
Tropical Storm Tracking
New forecast layout! Learn more

10-Day Weather Forecast

Advertisements
Track Severe Weather on mobile